PST,Max TemperatureF,Mean TemperatureF,Min TemperatureF,Max Dew PointF,MeanDew PointF,Min DewpointF,Max Humidity, Mean Humidity, Min Humidity, Max Sea Level PressureIn, Mean Sea Level PressureIn, Min Sea Level PressureIn, Max VisibilityMiles, Mean VisibilityMiles, Min VisibilityMiles, Max Wind SpeedMPH, Mean Wind SpeedMPH, Max Gust SpeedMPH,PrecipitationIn, CloudCover, Events, WindDirDegrees
2012-1-1,70,55,40,44,34,27,82,54,26,30.23,30.16,30.12,10,10,10,10,3,12,0.00,0,,101
2012-1-2,56,51,46,48,46,41,86,79,72,30.35,30.28,30.19,10,8,6,13,4,16,0.00,4,,77
2012-1-3,58,50,42,49,43,37,89,75,61,30.36,30.31,30.24,10,8,2,12,3,14,0.00,1,,78
2012-1-4,70,56,41,45,40,34,83,56,28,30.40,30.33,30.29,10,10,5,14,2,16,0.00,0,,162
2012-1-5,59,51,43,50,43,38,86,72,57,30.35,30.27,30.18,10,9,5,12,5,16,0.00,1,,204
2012-1-6,54,49,43,47,44,40,92,82,71,30.25,30.18,30.13,10,8,6,9,4,30,0.00,3,,205
2012-1-7,64,52,40,45,37,26,89,62,34,30.25,30.18,30.11,10,10,7,14,5,15,0.00,0,,76
2012-1-8,67,54,41,42,27,20,63,43,22,30.26,30.22,30.15,10,10,9,12,5,14,0.00,0,,90
2012-1-9,67,54,40,39,30,25,65,46,26,30.27,30.22,30.18,10,10,9,12,3,12,0.00,0,,85
2012-1-10,63,51,38,45,36,27,92,64,36,30.21,30.16,30.12,10,9,2,10,4,12,0.00,1,,90
2012-1-11,64,51,37,46,37,31,83,61,39,30.17,30.11,30.04,10,10,7,9,3,10,0.00,0,,93
2012-1-12,66,52,37,46,35,28,76,55,34,30.15,30.10,30.02,10,10,10,10,3,12,0.00,0,,99
2012-1-13,71,56,41,34,28,20,67,43,19,30.23,30.19,30.15,10,10,10,10,3,12,0.00,0,,90
2012-1-14,68,55,41,48,34,21,93,57,20,30.22,30.16,30.10,10,8,0,9,4,10,0.00,1,Fog,90
2012-1-15,54,48,41,44,37,31,80,65,50,30.23,30.15,30.10,10,10,9,17,8,24,0.00,6,,267
2012-1-16,51,42,32,31,27,19,75,52,29,30.39,30.31,30.23,10,10,10,14,5,20,0.00,0,,282
2012-1-17,52,43,34,35,29,26,76,56,35,30.46,30.41,30.35,10,10,10,12,5,15,0.00,0,,83
2012-1-18,54,42,29,39,31,21,79,62,44,30.47,30.39,30.29,10,10,10,10,3,13,0.00,0,,80
2012-1-19,54,46,37,47,41,30,86,71,56,30.30,30.20,30.11,10,10,8,8,3,10,0.06,5,Rain,101
2012-1-20,62,56,50,57,54,46,93,88,83,30.13,29.98,29.80,10,7,2,25,7,41,0.61,8,Rain,149
2012-1-21,61,52,43,55,47,39,93,77,61,30.23,30.02,29.80,10,8,2,29,12,40,0.38,5,Rain,230
2012-1-22,60,52,43,51,41,32,83,65,47,30.23,30.13,29.91,10,10,5,17,5,26,0.12,6,Rain,115
2012-1-23,59,55,50,54,49,44,83,80,77,30.22,29.95,29.79,10,9,2,26,12,40,0.14,7,Rain,222
2012-1-24,55,51,46,48,45,42,86,76,66,30.46,30.35,30.21,10,10,8,10,4,14,0.00,2,,326
2012-1-25,70,57,43,51,46,40,89,71,53,30.46,30.41,30.34,10,10,10,10,3,14,0.00,0,,56
2012-1-26,65,57,48,54,51,46,96,84,72,30.39,30.31,30.24,10,7,0,10,4,14,0.00,4,Fog,294
2012-1-27,62,53,44,48,43,28,93,66,39,30.30,30.24,30.18,10,7,0,12,4,24,0.00,1,Fog,41
2012-1-28,75,56,37,47,36,29,71,47,22,30.33,30.29,30.24,10,10,10,12,4,14,0.00,0,,86
2012-1-29,67,56,45,40,34,29,66,47,28,30.27,30.23,30.18,10,10,10,9,3,10,0.00,0,,46
2012-1-30,59,52,45,49,44,34,89,72,55,30.16,30.11,30.05,10,10,5,14,4,16,0.00,4,,231
2012-1-31,58,53,47,47,45,42,86,77,67,30.27,30.16,30.08,10,10,9,13,5,16,T,6,,284